PORT of CHALKI

Ülke: Greece Ülke: Greece (GR)
Enlem / Boylam: 36.221375° / 27.615645° Haritada Göster Haritada Göster
Yerel Zaman:  UTC +3
UN/LOCODE: GRHAL

Limandaki Gemiler


Kayıt Bulunamadı

Son Varış ve Kalkışlar


Gemi Adı
Varış (UTC)
Varış (LT)
Kalkış (UTC)
Kalkış (LT)
Vessel Type: Yüksek Hızlı Tekne  DODEKANISOS EXPRESS 2014-09-16 13:31:00 2014-09-16 16:31:00 2014-09-16 13:42:00 2014-09-16 16:42:00
Vessel Type: Yolcu Gemileri  FEDON 2014-09-16 07:14:00 2014-09-16 10:14:00 2014-09-16 13:04:00 2014-09-16 16:04:00
Vessel Type: Yatlar ve Diğerleri  SEALION 2014-09-16 10:47:00 2014-09-16 13:47:00
Vessel Type: Yatlar ve Diğerleri  ALCATRAZ 2014-09-15 09:18:00 2014-09-15 12:18:00 2014-09-16 00:41:00 2014-09-16 03:41:00
Vessel Type: Yolcu Gemileri  FEDON 2014-09-15 07:09:00 2014-09-15 10:09:00 2014-09-15 13:03:00 2014-09-15 16:03:00
Vessel Type: Yatlar ve Diğerleri  POLARIS-1 2014-09-15 09:14:00 2014-09-15 12:14:00 2014-09-15 12:23:00 2014-09-15 15:23:00
Vessel Type: Yolcu Gemileri  FEDON 2014-09-14 17:12:00 2014-09-14 20:12:00 2014-09-15 03:34:00 2014-09-15 06:34:00
Vessel Type: Yolcu Gemileri  NISSOS HALKI 2014-09-13 15:38:00 2014-09-13 18:38:00 2014-09-15 03:06:00 2014-09-15 06:06:00
Vessel Type: Yolcu Gemileri  FEDON 2014-09-14 15:00:00 2014-09-14 18:00:00 2014-09-14 15:23:00 2014-09-14 18:23:00
Vessel Type: Yolcu Gemileri  FEDON 2014-09-14 09:09:00 2014-09-14 12:09:00 2014-09-14 13:09:00 2014-09-14 16:09:00

Beklenen Varışlar


Gemi Adı
Scheduled Arrival (UTC)
Planlanmış Varış (Yerel Zaman)
Tahmini Varış (UTC)
Tahmini Varış (Yerel Zaman)
Kayıt Bulunamadı

Wind Forecast


    
Saat (UTC)
Hız
Direction
Temperature
2014-09-17 00:00:00 17 knots 301° 25°C
2014-09-17 03:00:00 18 knots 301° 25°C
2014-09-17 06:00:00 18 knots 310° 25°C
2014-09-17 09:00:00 18 knots 305° 25°C
2014-09-17 12:00:00 21 knots 291° 25°C
2014-09-17 15:00:00 22 knots 298° 24°C
2014-09-17 18:00:00 21 knots 304° 25°C
2014-09-17 21:00:00 20 knots 313° 25°C
2014-09-18 00:00:00 18 knots 326° 25°C
2014-09-18 03:00:00 21 knots 328° 24°C
2014-09-18 06:00:00 22 knots 333° 23°C
2014-09-18 09:00:00 22 knots 321° 23°C
2014-09-18 12:00:00 25 knots 308° 24°C
2014-09-18 15:00:00 26 knots 309° 24°C
2014-09-18 18:00:00 24 knots 315° 25°C
2014-09-18 21:00:00 21 knots 346° 25°C
2014-09-19 00:00:00 22 knots 351° 24°C